Time;durP1;ratioP1;P1;durP2;ratioP2;P2;SDS_P1;SDS_P2;PMS_P1;PMS_P2;Temp;Humidity;BMP_temperature;BMP_pressure;BME280_temperature;BME280_humidity;BME280_pressure;Samples;Min_cycle;Max_cycle;Signal;HPM_P1;HPM_P2
2021/12/12 00:02:44;;;;;;;11.02;3.55;;;4.40;99.90;;;4.11;86.46;101701.09;5145254;28;20086;-71
2021/12/12 00:05:19;;;;;;;8.60;3.05;;;4.40;99.90;;;4.13;86.44;101715.03;5143635;28;20047;-69
2021/12/12 00:07:51;;;;;;;7.25;3.03;;;4.40;99.90;;;4.06;86.93;101709.41;5144860;28;20051;-69
2021/12/12 00:10:29;;;;;;;10.88;3.00;;;4.40;99.90;;;4.08;87.01;101707.84;5144833;28;20062;-69
2021/12/12 00:13:11;;;;;;;7.25;2.50;;;4.40;99.90;;;4.07;87.16;101710.31;5144618;28;20076;-69
2021/12/12 00:15:43;;;;;;;6.18;2.53;;;4.40;99.90;;;4.14;86.83;101704.81;5144439;28;20480;-69
2021/12/12 00:18:15;;;;;;;7.97;3.58;;;4.40;99.90;;;4.11;86.77;101714.00;5144840;28;20046;-69
2021/12/12 00:20:52;;;;;;;9.38;3.03;;;4.40;99.90;;;4.11;87.03;101706.25;5144648;28;20050;-69
2021/12/12 00:23:25;;;;;;;7.95;3.00;;;4.40;99.90;;;4.11;87.33;101717.50;5144793;28;20758;-70
2021/12/12 00:25:59;;;;;;;10.23;3.20;;;4.40;99.90;;;4.13;87.30;101715.03;5144050;28;20262;-69
2021/12/12 00:28:33;;;;;;;6.85;2.85;;;4.40;99.90;;;4.16;86.96;101712.66;5144337;28;20051;-69
2021/12/12 00:31:10;;;;;;;11.55;2.95;;;4.50;99.90;;;4.20;86.82;101709.53;5144223;28;20047;-69
2021/12/12 00:33:47;;;;;;;7.78;3.08;;;4.50;99.90;;;4.22;86.46;101706.28;5145009;28;20133;-69
2021/12/12 00:36:20;;;;;;;8.68;2.72;;;4.50;99.90;;;4.24;86.54;101701.25;5160098;28;20099;-69
2021/12/12 00:38:57;;;;;;;6.82;2.35;;;4.50;99.90;;;4.25;86.53;101703.03;5163883;28;20074;-69
2021/12/12 00:41:36;;;;;;;7.25;2.80;;;4.50;99.90;;;4.23;86.73;101709.75;5153713;28;20051;-69
2021/12/12 00:44:12;;;;;;;7.28;2.63;;;4.50;99.90;;;4.21;87.07;101716.50;5150796;28;20046;-69
2021/12/12 00:46:45;;;;;;;7.57;2.88;;;4.50;99.90;;;4.24;86.97;101721.91;5148829;28;20053;-69
2021/12/12 00:49:19;;;;;;;4.82;2.38;;;4.50;99.90;;;4.25;87.07;101727.19;5147753;28;20050;-69
2021/12/12 00:51:51;;;;;;;6.63;2.60;;;4.50;99.90;;;4.21;86.96;101714.81;5155495;28;20046;-69
2021/12/12 00:54:30;;;;;;;9.68;2.83;;;4.50;99.90;;;4.27;87.14;101716.97;5161211;28;20050;-69
2021/12/12 00:57:08;;;;;;;4.88;2.60;;;4.50;99.90;;;4.30;86.84;101725.84;5153544;28;20092;-69
2021/12/12 00:59:44;;;;;;;12.73;3.17;;;4.60;99.90;;;4.39;86.38;101716.97;5162602;28;20073;-69
2021/12/12 01:02:22;;;;;;;7.55;2.88;;;4.60;99.90;;;4.38;86.64;101723.81;5163546;28;20046;-70
2021/12/12 01:04:57;;;;;;;7.65;2.75;;;4.60;99.90;;;4.40;86.38;101719.66;5158008;28;20504;-69
2021/12/12 01:07:38;;;;;;;10.90;3.10;;;4.60;99.90;;;4.41;86.29;101728.31;5143162;28;20054;-69
2021/12/12 01:10:17;;;;;;;8.93;3.20;;;4.60;99.90;;;4.41;86.44;101716.28;5150707;28;20072;-69
2021/12/12 01:12:51;;;;;;;6.53;2.53;;;4.60;99.90;;;4.42;86.59;101714.59;5146509;28;20083;-69
2021/12/12 01:15:33;;;;;;;3.97;2.60;;;4.60;99.90;;;4.36;86.36;101709.88;5152460;28;20401;-68
2021/12/12 01:18:14;;;;;;;6.68;2.72;;;4.60;99.90;;;4.34;86.23;101708.88;5147352;28;20067;-69
2021/12/12 01:20:51;;;;;;;6.50;2.85;;;4.60;99.90;;;4.36;86.37;101697.88;5155384;28;20523;-69
2021/12/12 01:23:30;;;;;;;6.47;2.97;;;4.60;99.90;;;4.36;86.24;101694.38;5150420;28;20055;-70
2021/12/12 01:26:04;;;;;;;10.55;2.72;;;4.60;99.90;;;4.41;86.15;101689.56;5149491;28;20050;-69
2021/12/12 01:28:40;;;;;;;7.60;2.75;;;4.60;99.90;;;4.42;85.67;101689.69;5160847;28;20051;-71
2021/12/12 01:31:23;;;;;;;7.47;2.90;;;4.60;99.90;;;4.37;85.61;101696.22;5147400;28;20138;-69
2021/12/12 01:34:08;;;;;;;5.78;2.70;;;4.60;99.90;;;4.33;85.82;101696.75;5152163;28;20562;-70
2021/12/12 01:36:52;;;;;;;7.15;2.63;;;4.60;99.90;;;4.34;85.80;101693.38;5151014;28;20054;-69
2021/12/12 01:39:25;;;;;;;4.97;3.00;;;4.60;99.90;;;4.26;85.72;101692.81;5158933;28;20072;-69
2021/12/12 01:42:05;;;;;;;11.07;2.80;;;4.60;99.90;;;4.20;86.07;101704.38;5136220;28;20047;-69
2021/12/12 01:44:46;;;;;;;7.85;3.17;;;4.50;99.90;;;4.15;86.07;101705.72;5126385;28;20047;-69
2021/12/12 01:47:24;;;;;;;7.80;2.83;;;4.50;99.90;;;4.11;86.00;101703.66;5134828;28;20051;-70
2021/12/12 01:50:01;;;;;;;5.85;2.88;;;4.50;99.90;;;4.09;86.22;101703.56;5133789;28;20047;-69
2021/12/12 01:52:34;;;;;;;10.90;3.33;;;4.40;99.90;;;4.03;86.53;101696.25;5154685;28;20054;-69
2021/12/12 01:55:23;;;;;;;5.60;2.40;;;4.40;99.90;;;4.07;86.66;101698.28;5151017;28;20059;-70
2021/12/12 01:58:00;;;;;;;10.13;3.78;;;4.40;99.90;;;4.07;86.24;101687.97;5146857;28;20074;-70
2021/12/12 02:00:38;;;;;;;6.18;2.55;;;4.40;99.90;;;4.08;86.32;101692.34;5154346;28;20480;-68
2021/12/12 02:03:20;;;;;;;12.38;2.50;;;4.40;99.90;;;4.11;86.36;101698.50;5155029;28;20055;-69
2021/12/12 02:05:53;;;;;;;6.18;2.88;;;4.40;99.90;;;4.11;86.47;101690.78;5146584;28;20907;-69
2021/12/12 02:08:28;;;;;;;7.40;2.63;;;4.40;99.90;;;4.13;86.27;101687.53;5165426;28;20050;-69
2021/12/12 02:11:05;;;;;;;7.90;3.00;;;4.40;99.90;;;4.13;86.63;101682.38;5166186;28;20050;-69
2021/12/12 02:13:53;;;;;;;10.82;3.05;;;4.40;99.90;;;4.09;86.88;101678.66;5156517;28;20050;-69
2021/12/12 02:16:28;;;;;;;13.23;3.13;;;4.40;99.90;;;4.07;86.65;101676.75;5149876;28;20062;-69
2021/12/12 02:19:01;;;;;;;10.10;3.25;;;4.30;99.90;;;4.09;86.69;101680.34;5151852;28;20046;-69
2021/12/12 02:21:48;;;;;;;7.43;2.88;;;4.40;99.90;;;4.08;87.17;101679.44;5146481;28;20053;-68
2021/12/12 02:35:07;;;;;;;9.57;3.88;;;4.40;99.90;;;4.16;86.93;101682.59;5145681;28;20566;-69
2021/12/12 02:36:00;;;;;;;4.57;2.50;;;4.50;99.90;;;4.21;86.68;101670.94;5163018;28;20058;-69
2021/12/12 02:38:33;;;;;;;9.25;3.83;;;4.50;99.90;;;4.16;86.82;101673.94;5159882;28;20133;-70
2021/12/12 02:41:12;;;;;;;5.72;2.28;;;4.50;99.90;;;4.13;87.26;101671.16;5145652;28;20089;-69
2021/12/12 02:43:49;;;;;;;7.07;3.00;;;4.50;99.90;;;4.14;87.20;101675.53;5145816;28;20061;-69
2021/12/12 02:46:27;;;;;;;9.20;3.10;;;4.50;99.90;;;4.16;87.49;101668.78;5144055;28;20046;-69
2021/12/12 02:49:06;;;;;;;8.90;2.90;;;4.50;99.90;;;4.14;87.47;101668.69;5145982;28;20062;-68
2021/12/12 02:51:40;;;;;;;7.40;2.95;;;4.50;99.90;;;4.20;87.61;101670.81;5145763;28;20047;-69
2021/12/12 02:54:13;;;;;;;9.05;2.95;;;4.50;99.90;;;4.23;87.42;101663.28;5158740;28;20042;-68
2021/12/12 02:56:49;;;;;;;12.40;3.10;;;4.50;99.90;;;4.27;87.08;101655.00;5159295;28;20557;-69
2021/12/12 02:59:24;;;;;;;4.78;2.75;;;4.50;99.90;;;4.25;87.14;101656.59;5164234;28;20057;-69
2021/12/12 03:02:01;;;;;;;9.07;2.97;;;4.50;99.90;;;4.24;87.47;101647.94;5165476;28;20418;-70
2021/12/12 03:04:34;;;;;;;12.68;3.55;;;4.50;99.90;;;4.30;87.25;101650.06;5145468;28;20042;-69
2021/12/12 03:07:10;;;;;;;9.25;3.35;;;4.60;99.90;;;4.39;87.21;101649.84;5153747;28;20506;-69
2021/12/12 03:09:46;;;;;;;8.30;2.83;;;4.60;99.90;;;4.37;86.98;101652.31;5160975;28;20069;-69
2021/12/12 03:12:30;;;;;;;7.78;3.20;;;4.60;99.90;;;4.34;87.18;101652.09;5164781;28;20129;-69
2021/12/12 03:15:10;;;;;;;5.70;2.78;;;4.60;99.90;;;4.35;87.42;101659.03;5145634;28;20047;-69
2021/12/12 03:17:44;;;;;;;9.07;2.75;;;4.60;99.90;;;4.38;87.57;101648.06;5160170;28;20050;-69
2021/12/12 03:20:24;;;;;;;10.18;3.35;;;4.70;99.90;;;4.42;87.37;101655.22;5166216;28;20399;-69
2021/12/12 03:23:01;;;;;;;10.85;3.47;;;4.70;99.90;;;4.38;87.65;101645.47;5165720;28;20113;-69
2021/12/12 03:25:38;;;;;;;8.85;2.80;;;4.70;99.90;;;4.43;87.59;101655.31;5165506;28;20049;-69
2021/12/12 03:28:21;;;;;;;9.27;3.15;;;4.70;99.90;;;4.50;87.30;101651.50;5165501;28;20054;-69
2021/12/12 03:30:56;;;;;;;9.52;3.53;;;4.70;99.90;;;4.55;87.13;101655.31;5165844;28;20058;-70
2021/12/12 03:33:29;;;;;;;;;;;4.80;99.90;;;4.52;87.29;101657.69;5166320;28;20050;-69
2021/12/12 03:36:06;;;;;;;9.35;2.92;;;4.80;99.90;;;4.55;87.21;101666.56;5165345;28;20298;-71
2021/12/12 03:38:43;;;;;;;7.05;2.28;;;4.80;99.90;;;4.55;87.56;101658.81;5164573;28;20061;-69
2021/12/12 03:41:23;;;;;;;7.47;2.83;;;4.80;99.90;;;4.54;87.35;101671.63;5165427;28;20058;-70
2021/12/12 03:44:04;;;;;;;15.18;3.60;;;4.80;99.90;;;4.50;88.04;101661.84;5164905;28;20057;-70
2021/12/12 03:46:37;;;;;;;9.35;3.13;;;4.80;99.90;;;4.49;88.14;101663.53;5165426;28;20517;-70
2021/12/12 03:49:10;;;;;;;11.35;2.95;;;4.90;99.90;;;4.49;87.74;101653.19;5165174;28;20054;-69
2021/12/12 03:51:45;;;;;;;9.27;3.60;;;4.80;99.90;;;4.56;87.78;101660.63;5165258;28;20050;-69
2021/12/12 03:54:19;;;;;;;6.60;3.13;;;4.80;99.90;;;4.54;87.95;101659.59;5164563;28;20064;-69
2021/12/12 03:56:51;;;;;;;7.65;3.03;;;4.90;99.90;;;4.59;87.82;101658.25;5165383;28;20061;-68
2021/12/12 03:59:25;;;;;;;9.73;2.97;;;4.90;99.90;;;4.62;87.73;101663.63;5165160;28;20054;-69
2021/12/12 04:01:58;;;;;;;9.07;3.22;;;4.90;99.90;;;4.66;87.51;101669.03;5165220;28;20046;-69
2021/12/12 04:04:34;;;;;;;9.02;3.08;;;4.90;99.90;;;4.67;87.76;101673.41;5164348;28;20505;-69
2021/12/12 04:07:12;;;;;;;8.77;3.00;;;4.90;99.90;;;4.70;87.56;101673.63;5165298;28;20054;-69
2021/12/12 04:09:45;;;;;;;7.57;3.08;;;4.90;99.90;;;4.68;87.50;101673.50;5165030;28;20050;-69
2021/12/12 04:12:19;;;;;;;7.95;3.28;;;5.00;99.90;;;4.69;87.54;101675.28;5165008;28;20051;-69
2021/12/12 04:14:57;;;;;;;8.80;3.10;;;5.00;99.90;;;4.68;87.88;101677.78;5163965;28;20042;-69
2021/12/12 04:17:32;;;;;;;9.73;3.40;;;5.00;99.90;;;4.69;88.16;101671.81;5165055;28;20058;-70
2021/12/12 04:20:10;;;;;;;7.93;3.38;;;5.00;99.90;;;4.69;87.96;101669.22;5164843;28;20064;-69
2021/12/12 04:22:43;;;;;;;8.30;2.72;;;5.00;99.90;;;4.68;87.83;101677.78;5165419;28;20060;-70
2021/12/12 04:25:16;;;;;;;6.82;3.20;;;5.00;99.90;;;4.70;88.08;101673.63;5164087;28;20085;-68
2021/12/12 04:27:48;;;;;;;12.48;3.67;;;5.00;99.90;;;4.73;88.09;101674.75;5164763;28;20082;-70
2021/12/12 04:30:23;;;;;;;13.80;4.80;;;5.00;99.90;;;4.77;88.01;101674.19;5164543;28;20046;-69
2021/12/12 04:32:56;;;;;;;9.77;4.15;;;5.00;99.90;;;4.76;88.06;101668.88;5164766;28;20154;-70
2021/12/12 04:35:29;;;;;;;9.43;4.40;;;5.00;99.90;;;4.82;87.75;101667.63;5163793;28;20046;-70
2021/12/12 04:38:04;;;;;;;10.05;3.35;;;5.10;99.90;;;4.78;87.83;101667.34;5164330;28;20491;-69
2021/12/12 04:40:37;;;;;;;11.63;4.05;;;5.00;99.90;;;4.75;88.12;101667.09;5164516;28;20050;-70
2021/12/12 04:43:09;;;;;;;10.77;3.72;;;5.00;99.90;;;4.81;88.07;101671.00;5164970;28;20050;-69
2021/12/12 04:46:06;;;;;;;13.40;6.18;;;5.00;99.90;;;4.82;87.84;101669.31;5163661;28;20053;-69
2021/12/12 04:51:44;;;;;;;11.82;3.88;;;5.10;99.90;;;4.82;88.48;101670.22;5164216;28;20096;-69
2021/12/12 04:54:25;;;;;;;9.30;4.10;;;5.10;99.90;;;4.84;88.55;101671.25;5163780;28;20058;-69
2021/12/12 04:57:02;;;;;;;7.13;3.45;;;5.10;99.90;;;4.86;88.81;101661.03;5164480;28;20057;-69
2021/12/12 04:59:41;;;;;;;18.13;4.25;;;5.10;99.90;;;4.83;89.02;101666.88;5164342;28;20488;-70
2021/12/12 05:02:22;;;;;;;15.68;5.53;;;5.10;99.90;;;4.84;89.38;101663.50;5164551;28;20073;-69
2021/12/12 05:05:00;;;;;;;17.92;6.13;;;5.10;99.90;;;4.84;90.03;101663.50;5163915;28;20066;-69
2021/12/12 05:07:37;;;;;;;13.65;5.00;;;5.20;99.90;;;4.87;89.96;101667.97;5164190;28;20054;-69
2021/12/12 05:10:14;;;;;;;13.98;4.00;;;5.10;99.90;;;4.84;90.53;101654.84;5163991;28;20050;-68
2021/12/12 05:12:49;;;;;;;24.27;8.73;;;5.10;99.90;;;4.83;90.71;101651.38;5164077;28;20085;-70
2021/12/12 05:15:24;;;;;;;;;;;5.10;99.90;;;4.86;90.75;101648.09;5163934;28;20077;-69
2021/12/12 05:18:01;;;;;;;12.73;4.40;;;5.10;99.90;;;4.89;90.97;101648.34;5164018;28;20323;-70
2021/12/12 05:20:45;;;;;;;11.40;3.67;;;5.10;99.90;;;4.91;91.05;101649.34;5164454;28;20050;-69
2021/12/12 05:23:22;;;;;;;13.25;4.35;;;5.10;99.90;;;4.87;91.29;101650.78;5164008;28;20055;-69
2021/12/12 05:26:02;;;;;;;17.45;7.13;;;5.10;99.90;;;4.89;91.80;101651.81;5163403;28;20046;-69
2021/12/12 05:28:41;;;;;;;15.63;6.40;;;5.10;99.90;;;4.88;91.84;101654.25;5163746;28;20050;-69
2021/12/12 05:31:13;;;;;;;12.43;4.40;;;5.20;99.90;;;4.89;92.25;101650.91;5163942;28;20050;-68
2021/12/12 05:33:50;;;;;;;11.60;3.65;;;5.20;99.90;;;4.94;92.10;101654.69;5163396;28;20051;-70
2021/12/12 05:36:23;;;;;;;10.70;4.47;;;5.20;99.90;;;5.01;92.15;101653.44;5163774;28;20051;-69
2021/12/12 05:38:58;;;;;;;13.68;4.18;;;5.20;99.90;;;4.98;92.68;101651.56;5164163;28;20050;-70
2021/12/12 05:41:30;;;;;;;12.65;4.35;;;5.20;99.90;;;4.93;92.99;101652.91;5163760;28;20046;-70
2021/12/12 05:44:05;;;;;;;12.02;5.25;;;5.20;99.90;;;4.92;93.50;101655.38;5163140;28;20050;-70
2021/12/12 05:46:37;;;;;;;11.80;4.40;;;5.20;99.90;;;4.89;94.21;101656.09;5163649;28;20054;-68
2021/12/12 05:49:12;;;;;;;7.22;3.78;;;5.20;99.90;;;4.84;94.87;101658.34;5246371;23;20051;-71
2021/12/12 05:51:44;;;;;;;9.85;4.18;;;5.20;99.90;;;4.85;95.52;101652.38;5141724;28;20050;-71
2021/12/12 05:54:16;;;;;;;9.07;3.90;;;5.20;99.90;;;4.84;95.60;101662.59;5143085;28;20073;-72
2021/12/12 05:56:49;;;;;;;9.77;4.05;;;5.10;99.90;;;4.81;96.83;101654.63;5143587;28;20480;-71
2021/12/12 05:59:22;;;;;;;12.35;4.15;;;5.10;99.90;;;4.81;97.43;101657.19;5143186;28;20412;-71
2021/12/12 06:01:54;;;;;;;8.82;3.60;;;5.10;99.90;;;4.84;97.10;101657.44;5144822;28;20232;-70
2021/12/12 06:04:27;;;;;;;16.52;4.40;;;5.10;99.90;;;4.79;98.76;101657.09;5146767;28;20058;-71
2021/12/12 06:07:03;;;;;;;10.65;3.60;;;5.10;99.90;;;4.78;99.07;101662.16;5147052;28;20051;-70
2021/12/12 06:09:36;;;;;;;12.43;4.43;;;5.10;99.90;;;4.81;99.31;101667.53;5146757;28;20069;-72
2021/12/12 06:12:10;;;;;;;10.10;3.50;;;5.10;99.90;;;4.86;99.64;101666.19;5147659;28;20399;-71
2021/12/12 06:14:42;;;;;;;12.13;3.80;;;5.10;99.90;;;4.90;99.96;101661.34;5146610;28;20051;-72
2021/12/12 06:17:17;;;;;;;9.80;3.85;;;5.10;99.90;;;5.00;99.87;101660.31;5146892;28;20054;-70
2021/12/12 06:19:51;;;;;;;14.02;3.97;;;5.20;99.90;;;4.93;100.00;101662.34;5146647;28;20053;-71
2021/12/12 06:22:23;;;;;;;10.40;4.70;;;5.20;99.90;;;4.90;100.00;101652.72;5147232;28;20492;-72
2021/12/12 06:24:56;;;;;;;8.00;3.30;;;5.20;99.90;;;4.93;100.00;101652.03;5146019;28;20066;-71
2021/12/12 06:27:29;;;;;;;10.38;3.67;;;5.20;99.90;;;4.95;100.00;101659.06;5146750;28;20511;-72
2021/12/12 06:30:01;;;;;;;12.65;3.60;;;5.20;99.90;;;4.98;100.00;101661.91;5146365;28;20043;-71
2021/12/12 06:32:33;;;;;;;9.70;3.38;;;5.20;99.90;;;4.96;100.00;101663.47;5146407;28;20074;-71
2021/12/12 06:35:09;;;;;;;11.27;3.80;;;5.20;99.90;;;4.97;100.00;101654.94;5146122;28;20073;-70
2021/12/12 06:37:43;;;;;;;12.13;3.47;;;5.20;99.90;;;4.97;100.00;101654.94;5146693;28;20389;-71
2021/12/12 06:40:19;;;;;;;9.13;3.58;;;5.20;99.90;;;4.94;100.00;101657.28;5146601;28;20065;-71
2021/12/12 06:42:54;;;;;;;10.30;3.17;;;5.20;99.90;;;4.93;100.00;101657.19;5146285;28;20057;-71
2021/12/12 06:45:26;;;;;;;12.32;5.95;;;5.20;99.90;;;4.92;100.00;101655.38;5146153;28;20125;-71
2021/12/12 06:48:00;;;;;;;12.93;4.47;;;5.20;99.90;;;4.94;100.00;101664.13;5146429;28;20130;-71
2021/12/12 06:50:36;;;;;;;8.82;3.50;;;5.20;99.90;;;4.92;100.00;101656.28;5146129;28;20053;-71
2021/12/12 06:53:10;;;;;;;14.63;5.75;;;5.30;99.90;;;4.96;100.00;101658.31;5146906;28;20051;-71
2021/12/12 06:55:44;;;;;;;13.13;4.57;;;5.30;99.90;;;4.98;100.00;101656.72;5145921;28;20053;-71
2021/12/12 06:58:19;;;;;;;15.07;6.60;;;5.30;99.90;;;4.98;100.00;101651.56;5146252;28;20389;-71
2021/12/12 07:00:57;;;;;;;16.55;5.60;;;5.30;99.90;;;5.00;100.00;101644.81;5146016;28;20051;-70
2021/12/12 07:03:31;;;;;;;9.05;3.97;;;5.30;99.90;;;5.05;100.00;101642.53;5146110;28;20415;-70
2021/12/12 07:06:06;;;;;;;9.60;4.03;;;5.30;99.90;;;5.11;100.00;101654.22;5145571;28;20054;-69
2021/12/12 07:08:39;;;;;;;10.25;3.38;;;5.30;99.90;;;5.14;100.00;101659.59;5146021;28;20073;-69
2021/12/12 07:11:16;;;;;;;8.73;3.55;;;5.40;99.90;;;5.14;100.00;101659.59;5145772;28;20057;-70
2021/12/12 07:13:50;;;;;;;6.47;3.50;;;5.40;99.90;;;5.18;100.00;101659.03;5145381;28;20055;-68
2021/12/12 07:16:23;;;;;;;9.35;4.13;;;5.40;99.90;;;5.21;100.00;101657.44;5145805;28;20043;-70
2021/12/12 07:18:57;;;;;;;11.90;4.25;;;5.40;99.90;;;5.23;100.00;101658.47;5145608;28;20059;-70
2021/12/12 07:21:31;;;;;;;10.27;4.68;;;5.40;99.90;;;5.22;100.00;101659.25;5145675;28;20057;-70
2021/12/12 07:24:05;;;;;;;9.70;3.70;;;5.40;99.90;;;5.26;100.00;101656.06;5145333;28;20543;-69
2021/12/12 07:26:38;;;;;;;8.40;3.20;;;5.50;99.90;;;5.33;100.00;101656.59;5145253;28;20050;-70
2021/12/12 07:29:11;;;;;;;13.48;3.85;;;5.50;99.90;;;5.32;100.00;101656.50;5145925;28;20435;-69
2021/12/12 07:31:43;;;;;;;11.43;4.03;;;5.50;99.90;;;5.32;100.00;101646.16;5145365;28;20053;-68
2021/12/12 07:34:17;;;;;;;7.93;3.08;;;5.50;99.90;;;5.34;100.00;101657.50;5144905;28;20051;-69
2021/12/12 07:36:55;;;;;;;7.25;3.92;;;5.50;99.90;;;5.35;100.00;101661.91;5145139;28;20053;-69
2021/12/12 07:39:29;;;;;;;9.68;3.15;;;5.50;99.90;;;5.38;100.00;101660.41;5145557;28;20051;-69
2021/12/12 07:42:05;;;;;;;8.07;3.70;;;5.60;99.90;;;5.37;100.00;101660.31;5145303;28;20055;-68
2021/12/12 07:44:40;;;;;;;10.48;3.30;;;5.60;99.90;;;5.38;100.00;101655.22;5145140;28;20057;-69
2021/12/12 07:47:15;;;;;;;7.57;3.08;;;5.60;99.90;;;5.43;100.00;101661.63;5145000;28;20559;-69
2021/12/12 07:49:50;;;;;;;8.15;3.63;;;5.60;99.90;;;5.50;100.00;101670.69;5145342;28;20215;-69
2021/12/12 07:52:27;;;;;;;10.80;3.00;;;5.60;99.90;;;5.53;100.00;101665.72;5144974;28;20061;-69
2021/12/12 07:55:01;;;;;;;8.80;3.35;;;5.60;99.90;;;5.50;100.00;101662.94;5144523;28;20061;-69
2021/12/12 07:57:34;;;;;;;8.07;2.80;;;5.70;99.90;;;5.55;100.00;101668.44;5144784;28;20043;-69
2021/12/12 08:00:12;;;;;;;7.88;2.45;;;5.70;99.90;;;5.49;100.00;101663.75;5145149;28;20050;-69
2021/12/12 08:02:45;;;;;;;6.97;3.00;;;5.70;99.90;;;5.50;100.00;101670.69;5145208;28;20134;-69
2021/12/12 08:05:20;;;;;;;6.72;3.03;;;5.70;99.90;;;5.50;100.00;101681.06;5144407;28;20051;-69
2021/12/12 08:07:53;;;;;;;6.82;2.47;;;5.70;99.90;;;5.56;100.00;101686.66;5144580;28;20509;-69
2021/12/12 08:10:28;;;;;;;6.30;2.70;;;5.70;99.90;;;5.58;100.00;101674.72;5144897;28;20057;-70
2021/12/12 08:13:01;;;;;;;7.47;2.50;;;5.70;99.90;;;5.78;100.00;101662.22;5145085;28;20047;-70
2021/12/12 08:15:34;;;;;;;4.95;2.38;;;5.80;99.90;;;5.78;100.00;101664.81;5144364;28;20504;-69
2021/12/12 08:18:09;;;;;;;7.88;3.10;;;5.80;99.90;;;5.81;100.00;101672.81;5144682;28;20518;-69
2021/12/12 08:20:43;;;;;;;;;;;5.90;99.90;;;5.84;100.00;101670.41;5144928;28;20053;-68
2021/12/12 08:23:20;;;;;;;6.50;2.40;;;5.90;99.90;;;5.83;100.00;101672.09;5144656;28;19922;-69
2021/12/12 08:25:55;;;;;;;5.43;2.15;;;5.90;99.90;;;5.83;100.00;101681.56;5143529;28;20058;-72
2021/12/12 08:28:30;;;;;;;7.55;2.50;;;6.00;99.90;;;5.88;100.00;101691.44;5144236;28;20101;-70
2021/12/12 08:31:04;;;;;;;9.68;4.10;;;6.00;99.90;;;5.79;100.00;101689.91;5144743;28;20053;-70
2021/12/12 08:33:36;;;;;;;6.20;2.58;;;6.00;99.90;;;5.78;100.00;101694.19;5144537;28;20061;-70
2021/12/12 08:36:09;;;;;;;4.07;2.08;;;6.00;99.90;;;5.87;100.00;101693.94;5144188;28;20070;-70
2021/12/12 08:38:43;;;;;;;5.15;2.13;;;6.00;99.90;;;5.89;100.00;101692.34;5144111;28;20047;-70
2021/12/12 08:41:15;;;;;;;5.03;1.90;;;6.00;99.90;;;5.91;100.00;101698.53;5144344;28;20054;-73
2021/12/12 08:43:48;;;;;;;11.15;5.28;;;6.00;99.90;;;5.95;100.00;101703.13;5143705;28;20058;-71
2021/12/12 08:46:23;;;;;;;7.85;3.35;;;6.10;99.90;;;5.97;100.00;101706.72;5144332;28;20047;-71
2021/12/12 08:48:55;;;;;;;4.93;2.53;;;6.10;99.90;;;5.99;100.00;101699.94;5143899;28;20057;-71
2021/12/12 08:51:32;;;;;;;5.30;2.30;;;6.10;99.90;;;6.04;100.00;101701.16;5144179;28;20062;-71
2021/12/12 08:54:14;;;;;;;6.30;2.65;;;6.10;99.90;;;6.03;100.00;101693.28;5143418;28;20051;-72
2021/12/12 08:56:49;;;;;;;4.95;2.17;;;6.10;99.90;;;6.09;100.00;101692.00;5144350;28;20492;-70
2021/12/12 08:59:27;;;;;;;3.58;2.05;;;6.20;99.90;;;6.16;100.00;101688.13;5144157;28;20059;-73
2021/12/12 09:02:04;;;;;;;3.80;2.15;;;6.20;99.90;;;6.12;100.00;101692.19;5144449;28;20652;-71
2021/12/12 09:04:43;;;;;;;7.38;3.10;;;6.20;99.90;;;6.17;100.00;101689.94;5143680;28;20055;-71
2021/12/12 09:07:20;;;;;;;3.45;2.30;;;6.20;99.90;;;6.19;100.00;101689.25;5144226;28;20043;-71
2021/12/12 09:10:08;;;;;;;5.03;2.72;;;6.30;99.90;;;6.15;100.00;101692.41;5144049;28;20050;-70
2021/12/12 09:12:46;;;;;;;3.17;2.35;;;6.20;99.90;;;6.22;100.00;101699.78;5144113;28;20059;-70
2021/12/12 09:15:24;;;;;;;5.25;2.45;;;6.30;99.90;;;6.25;100.00;101694.81;5143913;28;20090;-71
2021/12/12 09:18:03;;;;;;;5.53;2.65;;;6.30;99.90;;;6.22;100.00;101704.97;5144214;28;20055;-70
2021/12/12 09:20:47;;;;;;;7.25;2.90;;;6.30;99.90;;;6.22;100.00;101704.97;5144226;28;20057;-70
2021/12/12 09:23:25;;;;;;;6.55;3.13;;;6.40;99.90;;;6.21;100.00;101718.72;5144004;28;20070;-70
2021/12/12 09:26:04;;;;;;;4.88;1.95;;;6.40;99.90;;;6.23;100.00;101711.06;5143841;28;20097;-71
2021/12/12 09:28:41;;;;;;;3.83;1.70;;;6.30;99.90;;;6.21;100.00;101698.00;5144320;28;20074;-70
2021/12/12 09:31:19;;;;;;;8.35;2.97;;;6.40;99.90;;;6.27;100.00;101702.69;5143999;28;20046;-70
2021/12/12 09:33:55;;;;;;;8.50;2.58;;;6.40;99.90;;;6.40;100.00;101694.94;5143621;28;20507;-72
2021/12/12 09:36:36;;;;;;;10.55;2.83;;;6.40;99.90;;;6.61;100.00;101705.81;5146032;28;20055;-71
2021/12/12 09:39:14;;;;;;;5.70;1.98;;;6.70;99.90;;;6.64;100.00;101710.28;5148072;28;20046;-71
2021/12/12 09:42:29;;;;;;;6.03;2.28;;;6.80;99.90;;;6.62;100.00;101712.78;5148112;28;20057;-70
2021/12/12 09:45:49;;;;;;;5.10;2.28;;;6.80;99.90;;;6.65;100.00;101712.06;5147622;28;20061;-70
2021/12/12 09:51:45;;;;;;;8.05;3.13;;;6.70;99.90;;;6.55;100.00;101710.59;5155092;28;19922;-69
2021/12/12 09:54:32;;;;;;;4.68;1.80;;;6.70;99.90;;;6.56;100.00;101707.19;5155825;28;20050;-70
2021/12/12 09:57:12;;;;;;;8.15;4.35;;;6.70;99.90;;;6.52;100.00;101713.00;5141774;28;20419;-71
2021/12/12 10:00:03;;;;;;;7.47;3.85;;;6.60;99.90;;;6.47;100.00;101716.97;5147228;28;20054;-71
2021/12/12 10:03:02;;;;;;;4.50;1.73;;;6.60;99.90;;;6.43;100.00;101705.50;5146996;28;20522;-70
2021/12/12 10:05:51;;;;;;;9.80;4.20;;;6.60;99.90;;;6.45;100.00;101703.00;5146919;28;20051;-71
2021/12/12 10:08:33;;;;;;;8.73;5.00;;;6.60;99.90;;;6.57;100.00;101701.22;5147270;28;20050;-71
2021/12/12 10:11:10;;;;;;;10.18;5.72;;;6.70;99.90;;;6.60;100.00;101703.13;5146789;28;20419;-71
2021/12/12 10:13:46;;;;;;;7.85;3.72;;;6.70;99.90;;;6.60;100.00;101697.94;5146963;28;20143;-70
2021/12/12 10:16:27;;;;;;;7.22;3.40;;;6.70;99.90;;;6.64;100.00;101711.19;5147371;28;20063;-76
2021/12/12 10:19:09;;;;;;;5.30;2.30;;;6.70;99.90;;;6.66;100.00;101714.78;5146987;28;20503;-72
2021/12/12 10:21:57;;;;;;;4.88;2.53;;;6.80;99.90;;;6.66;100.00;101709.59;5146870;28;20520;-70
2021/12/12 10:24:35;;;;;;;6.57;3.17;;;6.80;99.90;;;6.82;100.00;101702.81;5145976;28;20515;-69
2021/12/12 10:27:15;;;;;;;3.97;2.30;;;6.80;99.90;;;6.80;100.00;101701.00;5146955;28;20497;-73
2021/12/12 10:30:01;;;;;;;3.35;2.00;;;6.80;99.90;;;6.85;100.00;101697.84;5146545;28;20057;-71
2021/12/12 10:32:46;;;;;;;3.13;1.80;;;6.90;99.90;;;6.93;100.00;101704.41;5146479;28;20082;-70
2021/12/12 10:35:23;;;;;;;2.65;1.70;;;6.90;99.90;;;6.89;100.00;101704.97;5145887;28;20452;-71
2021/12/12 10:38:00;;;;;;;4.88;2.75;;;6.90;99.90;;;6.85;99.65;101710.78;5146647;28;20473;-71
2021/12/12 10:40:39;;;;;;;3.28;1.88;;;6.90;99.90;;;6.84;99.88;101708.97;5146035;28;20051;-71
2021/12/12 10:43:22;;;;;;;6.03;2.05;;;6.90;99.90;;;6.82;99.46;101710.59;5146770;28;20633;-70
2021/12/12 10:46:04;;;;;;;3.10;2.05;;;7.00;99.90;;;6.77;99.76;101705.97;5145780;28;20059;-70
2021/12/12 10:48:45;;;;;;;3.42;1.52;;;7.00;99.90;;;6.82;99.88;101703.69;5145212;28;20047;-70
2021/12/12 10:51:22;;;;;;;2.03;1.52;;;6.90;99.90;;;6.92;99.38;101703.50;5146560;28;20055;-70
2021/12/12 10:54:06;;;;;;;3.55;1.67;;;7.00;99.90;;;7.03;98.49;101697.28;5145585;28;20046;-74
2021/12/12 10:56:43;;;;;;;2.53;1.40;;;7.00;99.90;;;7.08;98.29;101695.88;5146489;28;20393;-70
2021/12/12 10:59:23;;;;;;;2.95;1.40;;;7.10;99.90;;;7.10;98.25;101697.66;5146470;28;20507;-70
2021/12/12 11:01:59;;;;;;;4.10;2.03;;;7.10;99.90;;;7.15;97.58;101702.34;5145931;28;20051;-70
2021/12/12 11:04:41;;;;;;;4.55;2.58;;;7.10;99.90;;;7.20;96.95;101695.75;5145570;28;20051;-70
2021/12/12 11:07:23;;;;;;;4.47;2.72;;;7.20;99.90;;;7.14;97.14;101690.19;5145477;28;20047;-70
2021/12/12 11:10:05;;;;;;;4.35;2.60;;;7.20;99.90;;;7.14;97.47;101702.25;5145979;28;20050;-71
2021/12/12 11:12:44;;;;;;;7.25;3.25;;;7.20;99.90;;;7.12;97.75;101702.16;5146126;28;20098;-73
2021/12/12 11:15:22;;;;;;;5.78;2.63;;;7.20;99.90;;;7.12;97.93;101707.34;5145348;28;20097;-70
2021/12/12 11:18:03;;;;;;;3.03;2.08;;;7.20;99.90;;;7.16;97.57;101692.88;5145529;28;20493;-69
2021/12/12 11:20:41;;;;;;;4.50;2.35;;;7.20;99.90;;;7.18;97.41;101694.78;5145751;28;20057;-71